sensor_id;sensor_type;location;lat;lon;timestamp;pressure;altitude;pressure_sealevel;temperature;humidity
29907;BME280;16776;50.958;10.994;2024-01-27T00:00:43;99939.78;;;3.65;98.29
29907;BME280;16776;50.958;10.994;2024-01-27T00:03:10;99935.50;;;3.64;98.65
29907;BME280;16776;50.958;10.994;2024-01-27T00:05:38;99935.50;;;3.64;97.90
29907;BME280;16776;50.958;10.994;2024-01-27T00:08:05;99944.81;;;3.62;97.92
29907;BME280;16776;50.958;10.994;2024-01-27T00:10:31;99949.97;;;3.64;98.67
29907;BME280;16776;50.958;10.994;2024-01-27T00:12:58;99952.50;;;3.64;98.72
29907;BME280;16776;50.958;10.994;2024-01-27T00:15:24;99960.97;;;3.63;97.84
29907;BME280;16776;50.958;10.994;2024-01-27T00:17:51;99955.84;;;3.61;97.96
29907;BME280;16776;50.958;10.994;2024-01-27T00:20:18;99949.00;;;3.60;97.42
29907;BME280;16776;50.958;10.994;2024-01-27T00:22:45;99949.91;;;3.62;98.16
29907;BME280;16776;50.958;10.994;2024-01-27T00:25:12;99944.78;;;3.61;97.53
29907;BME280;16776;50.958;10.994;2024-01-27T00:27:39;99958.34;;;3.60;97.78
29907;BME280;16776;50.958;10.994;2024-01-27T00:30:07;99963.44;;;3.60;98.24
29907;BME280;16776;50.958;10.994;2024-01-27T00:32:36;99962.56;;;3.58;97.03
29907;BME280;16776;50.958;10.994;2024-01-27T00:35:04;99966.78;;;3.57;98.05
29907;BME280;16776;50.958;10.994;2024-01-27T00:37:30;99967.59;;;3.56;97.63
29907;BME280;16776;50.958;10.994;2024-01-27T00:39:58;99950.38;;;3.46;97.24
29907;BME280;16776;50.958;10.994;2024-01-27T00:42:25;99960.75;;;3.54;97.45
29907;BME280;16776;50.958;10.994;2024-01-27T00:44:52;99968.38;;;3.54;96.63
29907;BME280;16776;50.958;10.994;2024-01-27T00:47:19;99973.44;;;3.52;97.58
29907;BME280;16776;50.958;10.994;2024-01-27T00:49:45;99972.56;;;3.52;97.00
29907;BME280;16776;50.958;10.994;2024-01-27T00:52:12;99979.38;;;3.51;97.35
29907;BME280;16776;50.958;10.994;2024-01-27T00:54:39;99985.25;;;3.49;97.21
29907;BME280;16776;50.958;10.994;2024-01-27T00:57:07;99988.72;;;3.51;97.19
29907;BME280;16776;50.958;10.994;2024-01-27T00:59:33;99991.16;;;3.48;97.10
29907;BME280;16776;50.958;10.994;2024-01-27T01:02:00;99996.25;;;3.48;96.89
29907;BME280;16776;50.958;10.994;2024-01-27T01:04:26;99991.94;;;3.45;96.23
29907;BME280;16776;50.958;10.994;2024-01-27T01:06:53;99989.38;;;3.43;96.81
29907;BME280;16776;50.958;10.994;2024-01-27T01:09:19;99999.53;;;3.42;95.80
29907;BME280;16776;50.958;10.994;2024-01-27T01:11:47;100001.16;;;3.38;96.04
29907;BME280;16776;50.958;10.994;2024-01-27T01:14:15;100007.06;;;3.39;96.08
29907;BME280;16776;50.958;10.994;2024-01-27T01:16:41;100002.78;;;3.36;96.75
29907;BME280;16776;50.958;10.994;2024-01-27T01:19:07;100003.63;;;3.35;96.80
29907;BME280;16776;50.958;10.994;2024-01-27T01:21:34;100001.06;;;3.35;96.71
29907;BME280;16776;50.958;10.994;2024-01-27T01:24:03;100006.97;;;3.34;96.09
29907;BME280;16776;50.958;10.994;2024-01-27T01:26:30;100002.69;;;3.33;95.85
29907;BME280;16776;50.958;10.994;2024-01-27T01:28:56;100000.16;;;3.33;96.38
29907;BME280;16776;50.958;10.994;2024-01-27T01:31:24;100002.75;;;3.35;96.86
29907;BME280;16776;50.958;10.994;2024-01-27T01:33:51;100005.25;;;3.32;95.87
29907;BME280;16776;50.958;10.994;2024-01-27T01:36:18;100006.91;;;3.31;96.22
29907;BME280;16776;50.958;10.994;2024-01-27T01:38:44;100008.59;;;3.31;96.66
29907;BME280;16776;50.958;10.994;2024-01-27T01:41:11;100011.16;;;3.31;96.60
29907;BME280;16776;50.958;10.994;2024-01-27T01:43:37;100004.28;;;3.30;96.25
29907;BME280;16776;50.958;10.994;2024-01-27T01:46:04;100010.22;;;3.29;96.09
29907;BME280;16776;50.958;10.994;2024-01-27T01:48:32;100017.78;;;3.27;95.95
29907;BME280;16776;50.958;10.994;2024-01-27T01:50:59;100019.34;;;3.21;95.38
29907;BME280;16776;50.958;10.994;2024-01-27T01:53:26;100018.41;;;3.17;95.81
29907;BME280;16776;50.958;10.994;2024-01-27T01:55:53;100022.63;;;3.17;95.47
29907;BME280;16776;50.958;10.994;2024-01-27T01:58:20;100024.28;;;3.15;95.89
29907;BME280;16776;50.958;10.994;2024-01-27T02:00:46;100017.44;;;3.12;96.45
29907;BME280;16776;50.958;10.994;2024-01-27T02:03:13;100020.78;;;3.11;95.66
29907;BME280;16776;50.958;10.994;2024-01-27T02:05:41;100024.13;;;3.09;95.20
29907;BME280;16776;50.958;10.994;2024-01-27T02:08:08;100006.75;;;2.94;95.50
29907;BME280;16776;50.958;10.994;2024-01-27T02:10:35;100024.78;;;3.01;95.23
29907;BME280;16776;50.958;10.994;2024-01-27T02:13:03;100031.53;;;2.99;96.46
29907;BME280;16776;50.958;10.994;2024-01-27T02:15:31;100016.22;;;2.98;95.79
29907;BME280;16776;50.958;10.994;2024-01-27T02:17:58;100027.22;;;2.97;95.36
29907;BME280;16776;50.958;10.994;2024-01-27T02:20:24;100022.06;;;2.95;95.37
29907;BME280;16776;50.958;10.994;2024-01-27T02:22:52;100017.84;;;2.96;95.84
29907;BME280;16776;50.958;10.994;2024-01-27T02:25:20;100018.66;;;2.93;95.79
29907;BME280;16776;50.958;10.994;2024-01-27T02:27:46;100007.47;;;2.88;96.32
29907;BME280;16776;50.958;10.994;2024-01-27T02:30:13;100021.00;;;2.87;95.59
29907;BME280;16776;50.958;10.994;2024-01-27T02:32:40;100011.63;;;2.85;95.83
29907;BME280;16776;50.958;10.994;2024-01-27T02:35:07;100024.28;;;2.83;95.55
29907;BME280;16776;50.958;10.994;2024-01-27T02:37:34;100025.09;;;2.81;95.52
29907;BME280;16776;50.958;10.994;2024-01-27T02:40:00;100041.19;;;2.80;95.86
29907;BME280;16776;50.958;10.994;2024-01-27T02:42:28;100041.19;;;2.80;96.28
29907;BME280;16776;50.958;10.994;2024-01-27T02:44:55;100043.63;;;2.77;95.20
29907;BME280;16776;50.958;10.994;2024-01-27T02:47:23;100049.53;;;2.76;95.30
29907;BME280;16776;50.958;10.994;2024-01-27T02:49:50;100050.31;;;2.73;95.73
29907;BME280;16776;50.958;10.994;2024-01-27T02:52:16;100057.94;;;2.73;95.54
29907;BME280;16776;50.958;10.994;2024-01-27T02:54:43;100060.44;;;2.72;95.60
29907;BME280;16776;50.958;10.994;2024-01-27T02:57:11;100052.81;;;2.72;96.06
29907;BME280;16776;50.958;10.994;2024-01-27T02:59:40;100059.63;;;2.73;95.33
29907;BME280;16776;50.958;10.994;2024-01-27T03:02:06;100060.44;;;2.72;95.84
29907;BME280;16776;50.958;10.994;2024-01-27T03:04:33;100061.25;;;2.71;96.40
29907;BME280;16776;50.958;10.994;2024-01-27T03:07:00;100062.13;;;2.71;95.92
29907;BME280;16776;50.958;10.994;2024-01-27T03:09:26;100057.91;;;2.72;96.35
29907;BME280;16776;50.958;10.994;2024-01-27T03:11:53;100064.66;;;2.71;95.89
29907;BME280;16776;50.958;10.994;2024-01-27T03:14:19;100061.31;;;2.72;95.80
29907;BME280;16776;50.958;10.994;2024-01-27T03:16:47;100066.44;;;2.74;95.41
29907;BME280;16776;50.958;10.994;2024-01-27T03:19:14;100072.34;;;2.73;95.40
29907;BME280;16776;50.958;10.994;2024-01-27T03:21:40;100077.44;;;2.73;96.32
29907;BME280;16776;50.958;10.994;2024-01-27T03:24:07;100054.22;;;2.62;95.44
29907;BME280;16776;50.958;10.994;2024-01-27T03:26:34;100077.38;;;2.71;95.83
29907;BME280;16776;50.958;10.994;2024-01-27T03:29:00;100073.13;;;2.70;95.85
29907;BME280;16776;50.958;10.994;2024-01-27T03:31:30;100077.44;;;2.73;95.82
29907;BME280;16776;50.958;10.994;2024-01-27T03:33:58;100077.38;;;2.71;96.36
29907;BME280;16776;50.958;10.994;2024-01-27T03:36:24;100074.72;;;2.67;96.35
29907;BME280;16776;50.958;10.994;2024-01-27T03:38:51;100073.06;;;2.69;95.29
29907;BME280;16776;50.958;10.994;2024-01-27T03:41:17;100075.53;;;2.65;95.54
29907;BME280;16776;50.958;10.994;2024-01-27T03:43:44;100072.06;;;2.63;95.94
29907;BME280;16776;50.958;10.994;2024-01-27T03:46:10;100077.13;;;2.62;95.50
29907;BME280;16776;50.958;10.994;2024-01-27T03:48:37;100085.59;;;2.61;96.07
29907;BME280;16776;50.958;10.994;2024-01-27T03:51:05;100083.00;;;2.59;96.24
29907;BME280;16776;50.958;10.994;2024-01-27T03:53:32;100091.34;;;2.55;96.05
29907;BME280;16776;50.958;10.994;2024-01-27T03:55:58;100093.00;;;2.53;96.18
29907;BME280;16776;50.958;10.994;2024-01-27T03:58:28;100097.97;;;2.50;95.06
29907;BME280;16776;50.958;10.994;2024-01-27T04:00:54;100099.63;;;2.48;95.14
29907;BME280;16776;50.958;10.994;2024-01-27T04:03:21;100099.53;;;2.45;95.79
29907;BME280;16776;50.958;10.994;2024-01-27T04:05:47;100099.47;;;2.42;95.11
29907;BME280;16776;50.958;10.994;2024-01-27T04:08:15;100103.69;;;2.43;95.32
29907;BME280;16776;50.958;10.994;2024-01-27T04:10:42;100109.56;;;2.41;95.09
29907;BME280;16776;50.958;10.994;2024-01-27T04:13:08;100114.59;;;2.39;95.63
29907;BME280;16776;50.958;10.994;2024-01-27T04:15:35;100118.78;;;2.37;95.24
29907;BME280;16776;50.958;10.994;2024-01-27T04:18:04;100111.13;;;2.36;94.99
29907;BME280;16776;50.958;10.994;2024-01-27T04:20:30;100120.44;;;2.35;95.69
29907;BME280;16776;50.958;10.994;2024-01-27T04:22:57;100128.06;;;2.35;95.94
29907;BME280;16776;50.958;10.994;2024-01-27T04:25:25;100125.53;;;2.37;95.27
29907;BME280;16776;50.958;10.994;2024-01-27T04:27:51;100128.91;;;2.36;95.40
29907;BME280;16776;50.958;10.994;2024-01-27T04:30:18;100136.56;;;2.37;96.16
29907;BME280;16776;50.958;10.994;2024-01-27T04:32:45;100137.38;;;2.36;95.99
29907;BME280;16776;50.958;10.994;2024-01-27T04:35:12;100149.28;;;2.37;95.37
29907;BME280;16776;50.958;10.994;2024-01-27T04:37:38;100141.66;;;2.37;95.20
29907;BME280;16776;50.958;10.994;2024-01-27T04:40:06;100140.84;;;2.38;96.07
29907;BME280;16776;50.958;10.994;2024-01-27T04:42:34;100134.94;;;2.39;96.13
29907;BME280;16776;50.958;10.994;2024-01-27T04:45:01;100133.16;;;2.37;95.92
29907;BME280;16776;50.958;10.994;2024-01-27T04:47:29;100134.00;;;2.36;95.31
29907;BME280;16776;50.958;10.994;2024-01-27T04:49:58;100126.31;;;2.34;95.52
29907;BME280;16776;50.958;10.994;2024-01-27T04:52:24;100134.75;;;2.33;95.39
29907;BME280;16776;50.958;10.994;2024-01-27T04:54:51;100141.47;;;2.31;94.93
29907;BME280;16776;50.958;10.994;2024-01-27T04:57:18;100144.81;;;2.29;95.75
29907;BME280;16776;50.958;10.994;2024-01-27T04:59:46;100139.66;;;2.27;95.89
29907;BME280;16776;50.958;10.994;2024-01-27T05:02:12;100136.16;;;2.23;94.94
29907;BME280;16776;50.958;10.994;2024-01-27T05:04:39;100140.28;;;2.20;95.94
29907;BME280;16776;50.958;10.994;2024-01-27T05:07:05;100145.31;;;2.18;95.67
29907;BME280;16776;50.958;10.994;2024-01-27T05:09:33;100150.41;;;2.18;95.71
29907;BME280;16776;50.958;10.994;2024-01-27T05:12:00;100150.31;;;2.15;94.96
29907;BME280;16776;50.958;10.994;2024-01-27T05:14:28;100148.53;;;2.13;95.83
29907;BME280;16776;50.958;10.994;2024-01-27T05:16:55;100146.78;;;2.12;95.04
29907;BME280;16776;50.958;10.994;2024-01-27T05:19:22;100141.56;;;2.07;94.98
29907;BME280;16776;50.958;10.994;2024-01-27T05:21:48;100145.72;;;2.04;95.82
29907;BME280;16776;50.958;10.994;2024-01-27T05:24:15;100147.34;;;2.02;95.70
29907;BME280;16776;50.958;10.994;2024-01-27T05:26:42;100154.03;;;2.00;95.70
29907;BME280;16776;50.958;10.994;2024-01-27T05:29:08;100142.06;;;1.96;95.18
29907;BME280;16776;50.958;10.994;2024-01-27T05:31:35;100136.00;;;1.92;94.79
29907;BME280;16776;50.958;10.994;2024-01-27T05:34:03;100141.91;;;1.91;95.56
29907;BME280;16776;50.958;10.994;2024-01-27T05:36:29;100140.00;;;1.84;95.71
29907;BME280;16776;50.958;10.994;2024-01-27T05:38:56;100146.63;;;1.80;96.03
29907;BME280;16776;50.958;10.994;2024-01-27T05:41:25;100156.78;;;1.80;95.74
29907;BME280;16776;50.958;10.994;2024-01-27T05:43:54;100149.91;;;1.76;95.77
29907;BME280;16776;50.958;10.994;2024-01-27T05:46:22;100144.69;;;1.73;95.69
29907;BME280;16776;50.958;10.994;2024-01-27T05:48:49;100148.06;;;1.72;95.95
29907;BME280;16776;50.958;10.994;2024-01-27T05:51:20;100150.59;;;1.72;95.51
29907;BME280;16776;50.958;10.994;2024-01-27T05:53:47;100170.03;;;1.70;95.55
29907;BME280;16776;50.958;10.994;2024-01-27T05:56:13;100166.50;;;1.67;95.87
29907;BME280;16776;50.958;10.994;2024-01-27T05:58:40;100172.38;;;1.66;95.49
29907;BME280;16776;50.958;10.994;2024-01-27T06:01:07;100179.09;;;1.64;95.79
29907;BME280;16776;50.958;10.994;2024-01-27T06:03:35;100159.53;;;1.61;95.69
29907;BME280;16776;50.958;10.994;2024-01-27T06:06:01;100167.94;;;1.59;95.84
29907;BME280;16776;50.958;10.994;2024-01-27T06:08:29;100169.59;;;1.58;95.43
29907;BME280;16776;50.958;10.994;2024-01-27T06:10:56;100166.88;;;1.52;94.88
29907;BME280;16776;50.958;10.994;2024-01-27T06:13:22;100170.91;;;1.47;95.24
29907;BME280;16776;50.958;10.994;2024-01-27T06:15:49;100177.50;;;1.42;95.15
29907;BME280;16776;50.958;10.994;2024-01-27T06:18:16;100183.28;;;1.38;95.32
29907;BME280;16776;50.958;10.994;2024-01-27T06:20:43;100181.41;;;1.32;95.11
29907;BME280;16776;50.958;10.994;2024-01-27T06:23:10;100196.44;;;1.28;95.23
29907;BME280;16776;50.958;10.994;2024-01-27T06:25:37;100196.41;;;1.26;95.59
29907;BME280;16776;50.958;10.994;2024-01-27T06:28:04;100197.97;;;1.23;95.25
29907;BME280;16776;50.958;10.994;2024-01-27T06:30:31;100190.06;;;1.15;95.25
29907;BME280;16776;50.958;10.994;2024-01-27T06:32:58;100203.75;;;1.19;95.86
29907;BME280;16776;50.958;10.994;2024-01-27T06:35:24;100196.06;;;1.17;95.51
29907;BME280;16776;50.958;10.994;2024-01-27T06:37:51;100205.34;;;1.17;95.82
29907;BME280;16776;50.958;10.994;2024-01-27T06:40:17;100197.75;;;1.17;95.99
29907;BME280;16776;50.958;10.994;2024-01-27T06:42:45;100202.88;;;1.18;95.90
29907;BME280;16776;50.958;10.994;2024-01-27T06:45:12;100199.34;;;1.15;95.58
29907;BME280;16776;50.958;10.994;2024-01-27T06:47:38;100200.28;;;1.17;96.00
29907;BME280;16776;50.958;10.994;2024-01-27T06:50:06;100209.50;;;1.15;96.25
29907;BME280;16776;50.958;10.994;2024-01-27T06:52:33;100203.63;;;1.16;96.32
29907;BME280;16776;50.958;10.994;2024-01-27T06:55:00;100204.72;;;1.22;98.08
29907;BME280;16776;50.958;10.994;2024-01-27T06:57:26;100209.34;;;1.34;99.61
29907;BME280;16776;50.958;10.994;2024-01-27T06:59:54;100209.19;;;1.53;99.60
29907;BME280;16776;50.958;10.994;2024-01-27T07:02:22;100205.50;;;1.69;98.73
29907;BME280;16776;50.958;10.994;2024-01-27T07:04:49;100204.97;;;1.77;98.43
29907;BME280;16776;50.958;10.994;2024-01-27T07:07:15;100214.53;;;1.84;97.24
29907;BME280;16776;50.958;10.994;2024-01-27T07:09:42;100211.25;;;1.89;97.09
29907;BME280;16776;50.958;10.994;2024-01-27T07:12:09;100207.91;;;1.90;96.14
29907;BME280;16776;50.958;10.994;2024-01-27T07:14:35;100203.63;;;1.89;96.08
29907;BME280;16776;50.958;10.994;2024-01-27T07:17:04;100216.34;;;1.89;96.35
29907;BME280;16776;50.958;10.994;2024-01-27T07:19:30;100214.53;;;1.84;96.31
29907;BME280;16776;50.958;10.994;2024-01-27T07:21:57;100217.00;;;1.83;96.68
29907;BME280;16776;50.958;10.994;2024-01-27T07:24:24;100224.56;;;1.81;96.18
29907;BME280;16776;50.958;10.994;2024-01-27T07:26:50;100222.88;;;1.82;96.57
29907;BME280;16776;50.958;10.994;2024-01-27T07:29:17;100225.50;;;1.83;96.77
29907;BME280;16776;50.958;10.994;2024-01-27T07:31:45;100227.31;;;1.88;97.37
29907;BME280;16776;50.958;10.994;2024-01-27T07:34:13;100232.59;;;1.94;97.55
29907;BME280;16776;50.958;10.994;2024-01-27T07:36:39;100232.72;;;1.97;97.59
29907;BME280;16776;50.958;10.994;2024-01-27T07:39:06;100229.44;;;2.01;97.17
29907;BME280;16776;50.958;10.994;2024-01-27T07:41:33;100232.25;;;2.08;97.37
29907;BME280;16776;50.958;10.994;2024-01-27T07:44:07;100231.78;;;2.20;98.26
29907;BME280;16776;50.958;10.994;2024-01-27T07:46:34;100239.53;;;2.23;98.14
29907;BME280;16776;50.958;10.994;2024-01-27T07:49:01;100248.22;;;2.31;97.26
29907;BME280;16776;50.958;10.994;2024-01-27T07:51:29;100246.00;;;2.40;97.89
29907;BME280;16776;50.958;10.994;2024-01-27T07:53:56;100246.19;;;2.46;97.57
29907;BME280;16776;50.958;10.994;2024-01-27T07:56:22;100250.66;;;2.53;97.72
29907;BME280;16776;50.958;10.994;2024-01-27T07:58:49;100256.00;;;2.62;98.61
29907;BME280;16776;50.958;10.994;2024-01-27T08:01:15;100255.50;;;2.73;97.81
29907;BME280;16776;50.958;10.994;2024-01-27T08:03:42;100251.59;;;2.84;98.78
29907;BME280;16776;50.958;10.994;2024-01-27T08:06:15;100263.00;;;2.96;97.69
29907;BME280;16776;50.958;10.994;2024-01-27T08:08:44;100268.50;;;3.10;98.82
29907;BME280;16776;50.958;10.994;2024-01-27T08:11:11;100265.50;;;3.23;98.80
29907;BME280;16776;50.958;10.994;2024-01-27T08:13:37;100265.97;;;3.38;99.23
29907;BME280;16776;50.958;10.994;2024-01-27T08:16:04;100269.81;;;3.54;98.62
29907;BME280;16776;50.958;10.994;2024-01-27T08:18:31;100269.44;;;3.72;99.08
29907;BME280;16776;50.958;10.994;2024-01-27T08:20:57;100272.44;;;3.89;98.76
29907;BME280;16776;50.958;10.994;2024-01-27T08:23:24;100272.06;;;4.06;98.99
29907;BME280;16776;50.958;10.994;2024-01-27T08:25:52;100258.09;;;4.25;98.98
29907;BME280;16776;50.958;10.994;2024-01-27T08:28:18;100251.63;;;4.39;99.07
29907;BME280;16776;50.958;10.994;2024-01-27T08:30:45;100246.88;;;4.53;98.28
29907;BME280;16776;50.958;10.994;2024-01-27T08:33:11;100254.84;;;4.68;98.42
29907;BME280;16776;50.958;10.994;2024-01-27T08:35:38;100256.88;;;4.81;98.10
29907;BME280;16776;50.958;10.994;2024-01-27T08:38:05;100260.59;;;4.95;98.25
29907;BME280;16776;50.958;10.994;2024-01-27T08:40:33;100255.75;;;5.07;98.19
29907;BME280;16776;50.958;10.994;2024-01-27T08:43:02;100267.19;;;5.23;98.26
29907;BME280;16776;50.958;10.994;2024-01-27T08:45:29;100261.44;;;5.33;98.27
29907;BME280;16776;50.958;10.994;2024-01-27T08:47:55;100279.63;;;5.49;98.01
29907;BME280;16776;50.958;10.994;2024-01-27T08:50:22;100280.75;;;5.61;97.67
29907;BME280;16776;50.958;10.994;2024-01-27T08:52:48;100274.19;;;5.75;98.23
29907;BME280;16776;50.958;10.994;2024-01-27T08:55:15;100261.56;;;5.84;98.18
29907;BME280;16776;50.958;10.994;2024-01-27T08:57:44;100275.56;;;6.03;97.95
29907;BME280;16776;50.958;10.994;2024-01-27T09:00:14;100277.56;;;6.19;97.38
29907;BME280;16776;50.958;10.994;2024-01-27T09:02:41;100287.13;;;6.31;97.96
29907;BME280;16776;50.958;10.994;2024-01-27T09:05:08;100288.28;;;6.48;97.46
29907;BME280;16776;50.958;10.994;2024-01-27T09:07:35;100285.97;;;6.63;97.80
29907;BME280;16776;50.958;10.994;2024-01-27T09:10:02;100290.47;;;6.77;97.67
29907;BME280;16776;50.958;10.994;2024-01-27T09:12:28;100289.75;;;6.87;97.12
29907;BME280;16776;50.958;10.994;2024-01-27T09:14:55;100277.97;;;6.98;97.24
29907;BME280;16776;50.958;10.994;2024-01-27T09:17:23;100272.22;;;7.14;98.33
29907;BME280;16776;50.958;10.994;2024-01-27T09:19:49;100270.69;;;7.27;96.19
29907;BME280;16776;50.958;10.994;2024-01-27T09:22:16;100269.13;;;7.39;96.41
29907;BME280;16776;50.958;10.994;2024-01-27T09:24:43;100267.56;;;7.52;96.17
29907;BME280;16776;50.958;10.994;2024-01-27T09:27:10;100265.19;;;7.66;96.55
29907;BME280;16776;50.958;10.994;2024-01-27T09:29:37;100272.16;;;7.80;96.29
29907;BME280;16776;50.958;10.994;2024-01-27T09:32:05;100274.00;;;7.94;96.91
29907;BME280;16776;50.958;10.994;2024-01-27T09:34:33;100275.03;;;8.09;96.39
29907;BME280;16776;50.958;10.994;2024-01-27T09:36:59;100274.34;;;8.22;96.59
29907;BME280;16776;50.958;10.994;2024-01-27T09:39:26;100271.91;;;8.39;96.58
29907;BME280;16776;50.958;10.994;2024-01-27T09:41:54;100286.63;;;8.57;96.45
29907;BME280;16776;50.958;10.994;2024-01-27T09:44:21;100287.56;;;8.73;96.29
29907;BME280;16776;50.958;10.994;2024-01-27T09:46:48;100291.09;;;8.87;95.78
29907;BME280;16776;50.958;10.994;2024-01-27T09:49:14;100289.50;;;9.01;95.56
29907;BME280;16776;50.958;10.994;2024-01-27T09:51:43;100280.13;;;9.14;95.48
29907;BME280;16776;50.958;10.994;2024-01-27T09:54:09;100288.75;;;9.23;95.30
29907;BME280;16776;50.958;10.994;2024-01-27T09:56:36;100283.66;;;9.34;95.08
29907;BME280;16776;50.958;10.994;2024-01-27T09:59:05;100280.31;;;9.46;95.00
29907;BME280;16776;50.958;10.994;2024-01-27T10:01:33;100299.22;;;9.55;94.82
29907;BME280;16776;50.958;10.994;2024-01-27T10:04:00;100298.38;;;9.61;94.34
29907;BME280;16776;50.958;10.994;2024-01-27T10:06:27;100301.81;;;9.67;93.99
29907;BME280;16776;50.958;10.994;2024-01-27T10:08:55;100295.00;;;9.74;94.16
29907;BME280;16776;50.958;10.994;2024-01-27T10:11:23;100288.13;;;9.71;94.26
29907;BME280;16776;50.958;10.994;2024-01-27T10:13:54;100301.03;;;9.83;94.15
29907;BME280;16776;50.958;10.994;2024-01-27T10:16:21;100296.72;;;9.81;93.49
29907;BME280;16776;50.958;10.994;2024-01-27T10:18:47;100300.16;;;9.80;93.47
29907;BME280;16776;50.958;10.994;2024-01-27T10:21:25;100292.44;;;9.81;93.58
29907;BME280;16776;50.958;10.994;2024-01-27T10:23:52;100285.59;;;9.83;92.93
29907;BME280;16776;50.958;10.994;2024-01-27T10:26:20;100291.59;;;9.87;93.48
29907;BME280;16776;50.958;10.994;2024-01-27T10:28:52;100293.34;;;9.96;93.29
29907;BME280;16776;50.958;10.994;2024-01-27T10:31:19;100295.91;;;9.96;93.56
29907;BME280;16776;50.958;10.994;2024-01-27T10:33:51;100292.50;;;10.06;92.85
29907;BME280;16776;50.958;10.994;2024-01-27T10:36:18;100293.38;;;10.08;93.39
29907;BME280;16776;50.958;10.994;2024-01-27T10:38:45;100287.34;;;10.12;92.59
29907;BME280;16776;50.958;10.994;2024-01-27T10:41:16;100294.25;;;10.16;92.30
29907;BME280;16776;50.958;10.994;2024-01-27T10:43:49;100288.22;;;10.20;92.25
29907;BME280;16776;50.958;10.994;2024-01-27T10:46:19;100287.38;;;10.21;92.60
29907;BME280;16776;50.958;10.994;2024-01-27T10:48:49;100289.09;;;10.25;92.91
29907;BME280;16776;50.958;10.994;2024-01-27T10:51:22;100289.97;;;10.35;93.56
29907;BME280;16776;50.958;10.994;2024-01-27T10:53:52;100298.53;;;10.38;93.12
29907;BME280;16776;50.958;10.994;2024-01-27T10:56:21;100298.56;;;10.47;93.40
29907;BME280;16776;50.958;10.994;2024-01-27T10:58:52;100297.75;;;10.60;92.94
29907;BME280;16776;50.958;10.994;2024-01-27T11:01:20;100300.28;;;10.70;93.18
29907;BME280;16776;50.958;10.994;2024-01-27T11:03:49;100290.84;;;10.76;92.71
29907;BME280;16776;50.958;10.994;2024-01-27T11:06:21;100285.69;;;10.84;92.92
29907;BME280;16776;50.958;10.994;2024-01-27T11:08:49;100293.41;;;10.93;92.56
29907;BME280;16776;50.958;10.994;2024-01-27T11:11:16;100284.81;;;11.00;92.38
29907;BME280;16776;50.958;10.994;2024-01-27T11:13:43;100296.84;;;11.06;92.15
29907;BME280;16776;50.958;10.994;2024-01-27T11:16:18;100297.69;;;11.12;92.11
29907;BME280;16776;50.958;10.994;2024-01-27T11:18:45;100306.25;;;11.10;92.25
29907;BME280;16776;50.958;10.994;2024-01-27T11:21:15;100298.53;;;11.13;91.95
29907;BME280;16776;50.958;10.994;2024-01-27T11:23:42;100307.13;;;11.18;91.97
29907;BME280;16776;50.958;10.994;2024-01-27T11:26:10;100305.38;;;11.21;91.14
29907;BME280;16776;50.958;10.994;2024-01-27T11:28:39;100301.06;;;11.23;91.08
29907;BME280;16776;50.958;10.994;2024-01-27T11:31:07;100302.81;;;11.24;91.32
29907;BME280;16776;50.958;10.994;2024-01-27T11:33:41;100301.91;;;11.31;91.24
29907;BME280;16776;50.958;10.994;2024-01-27T11:36:07;100297.63;;;11.27;91.25
29907;BME280;16776;50.958;10.994;2024-01-27T11:38:34;100293.31;;;11.28;90.67
29907;BME280;16776;50.958;10.994;2024-01-27T11:41:01;100288.16;;;11.29;90.55
29907;BME280;16776;50.958;10.994;2024-01-27T11:43:27;100298.47;;;11.29;89.68
29907;BME280;16776;50.958;10.994;2024-01-27T11:45:55;100300.22;;;11.26;89.95
29907;BME280;16776;50.958;10.994;2024-01-27T11:48:22;100298.50;;;11.20;89.98
29907;BME280;16776;50.958;10.994;2024-01-27T11:51:02;100301.06;;;11.28;89.94
29907;BME280;16776;50.958;10.994;2024-01-27T11:53:28;100300.22;;;11.20;90.32
29907;BME280;16776;50.958;10.994;2024-01-27T11:55:55;100297.63;;;11.21;89.94
29907;BME280;16776;50.958;10.994;2024-01-27T11:58:22;100304.53;;;11.25;90.09
29907;BME280;16776;50.958;10.994;2024-01-27T12:00:48;100302.78;;;11.27;89.99
29907;BME280;16776;50.958;10.994;2024-01-27T12:03:15;100294.19;;;11.30;89.81
29907;BME280;16776;50.958;10.994;2024-01-27T12:05:41;100295.00;;;11.33;89.68
29907;BME280;16776;50.958;10.994;2024-01-27T12:08:10;100304.44;;;11.40;89.82
29907;BME280;16776;50.958;10.994;2024-01-27T12:10:37;100296.72;;;11.40;90.33
29907;BME280;16776;50.958;10.994;2024-01-27T12:13:03;100293.25;;;11.46;89.74
29907;BME280;16776;50.958;10.994;2024-01-27T12:15:30;100300.13;;;11.50;90.37
29907;BME280;16776;50.958;10.994;2024-01-27T12:17:57;100295.81;;;11.54;89.93
29907;BME280;16776;50.958;10.994;2024-01-27T12:20:23;100290.63;;;11.58;89.68
29907;BME280;16776;50.958;10.994;2024-01-27T12:23:02;100288.03;;;11.70;90.21
29907;BME280;16776;50.958;10.994;2024-01-27T12:25:30;100287.19;;;11.67;89.80
29907;BME280;16776;50.958;10.994;2024-01-27T12:27:56;100280.31;;;11.69;89.60
29907;BME280;16776;50.958;10.994;2024-01-27T12:30:26;100279.44;;;11.70;88.77
29907;BME280;16776;50.958;10.994;2024-01-27T12:32:52;100278.53;;;11.71;89.42
29907;BME280;16776;50.958;10.994;2024-01-27T12:35:19;100280.25;;;11.72;89.16
29907;BME280;16776;50.958;10.994;2024-01-27T12:37:46;100273.38;;;11.74;88.53
29907;BME280;16776;50.958;10.994;2024-01-27T12:40:20;100269.91;;;11.81;88.72
29907;BME280;16776;50.958;10.994;2024-01-27T12:42:48;100277.66;;;11.78;88.79
29907;BME280;16776;50.958;10.994;2024-01-27T12:45:15;100277.69;;;11.75;88.51
29907;BME280;16776;50.958;10.994;2024-01-27T12:47:41;100281.97;;;11.74;88.88
29907;BME280;16776;50.958;10.994;2024-01-27T12:50:09;100280.25;;;11.75;87.68